Time;durP1;ratioP1;P1;durP2;ratioP2;P2;SDS_P1;SDS_P2;PMS_P1;PMS_P2;Temp;Humidity;BMP_temperature;BMP_pressure;BME280_temperature;BME280_humidity;BME280_pressure;Samples;Min_cycle;Max_cycle;Signal;HPM_P1;HPM_P2
2022/01/07 00:25:22;;;;;;;13.20;6.37;;;;;;;2.41;79.99;101264.97;6442182;23;20087;-75
2022/01/07 00:27:53;;;;;;;12.45;6.25;;;;;;;2.34;79.88;101277.63;6474085;23;20027;-78
2022/01/07 00:30:25;;;;;;;14.70;5.73;;;;;;;2.37;79.77;101256.28;6473728;23;20009;-77
2022/01/07 00:32:56;;;;;;;17.63;5.80;;;;;;;2.33;80.36;101262.16;6475687;23;20418;-77
2022/01/07 00:35:32;;;;;;;14.03;5.93;;;;;;;2.26;81.25;101247.38;6469608;23;20123;-78
2022/01/07 00:38:04;;;;;;;15.68;6.07;;;;;;;2.20;82.24;101255.78;6475371;23;20103;-76
2022/01/07 00:40:35;;;;;;;15.02;6.10;;;;;;;2.09;82.67;101247.75;6477948;23;20061;-75
2022/01/07 00:43:07;;;;;;;16.77;5.80;;;;;;;2.05;84.03;101239.94;6478697;23;20012;-76
2022/01/07 00:45:53;;;;;;;15.40;6.90;;;;;;;1.97;84.07;101225.13;6479131;23;20012;-78
2022/01/07 00:48:24;;;;;;;19.00;6.57;;;;;;;1.98;84.19;101226.00;6473778;23;20456;-79
2022/01/07 00:50:55;;;;;;;16.87;5.50;;;;;;;1.93;84.38;101228.47;6476313;23;20000;-77
2022/01/07 00:53:27;;;;;;;15.03;6.20;;;;;;;1.91;84.61;101211.22;6481401;23;20001;-77
2022/01/07 00:55:58;;;;;;;13.63;5.57;;;;;;;1.93;85.08;101219.84;6485335;23;20020;-78
2022/01/07 00:58:32;;;;;;;14.53;6.87;;;;;;;1.99;84.24;101195.19;6457201;23;20091;-79
2022/01/07 01:01:04;;;;;;;14.07;5.97;;;;;;;2.06;83.79;101197.94;6453573;23;20012;-81
2022/01/07 01:03:36;;;;;;;13.07;5.47;;;;;;;2.11;83.35;101194.69;6452299;23;19997;-79
2022/01/07 01:06:08;;;;;;;20.30;6.32;;;;;;;2.16;83.35;101197.38;6459159;23;20064;-81
2022/01/07 01:08:41;;;;;;;16.80;5.57;;;;;;;2.14;83.21;101192.19;6487897;23;20005;-78
2022/01/07 01:11:13;;;;;;;16.73;5.63;;;;;;;2.17;83.28;101187.16;6488362;23;20020;-80
2022/01/07 01:13:44;;;;;;;15.10;5.07;;;;;;;2.18;82.71;101178.59;6487052;23;20347;-78
2022/01/07 01:16:15;;;;;;;16.50;6.13;;;;;;;2.18;82.98;101176.00;6489814;23;20020;-78
2022/01/07 01:18:47;;;;;;;15.97;6.10;;;;;;;2.24;82.29;101167.59;6488743;23;20078;-78
2022/01/07 01:21:18;;;;;;;17.43;5.63;;;;;;;2.25;81.82;101168.47;6489270;23;20020;-80
2022/01/07 01:23:50;;;;;;;16.13;6.50;;;;;;;2.25;82.37;101161.59;6489332;23;20013;-80
2022/01/07 01:26:21;;;;;;;11.90;5.93;;;;;;;2.33;80.69;101165.25;6488901;23;20047;-77
2022/01/07 01:28:53;;;;;;;13.80;5.60;;;;;;;2.33;81.27;101149.81;6479081;23;20004;-77
2022/01/07 01:31:24;;;;;;;12.40;4.77;;;;;;;2.34;80.61;101155.88;6469722;23;20419;-78
2022/01/07 01:33:56;;;;;;;11.50;5.27;;;;;;;2.34;81.50;101138.72;6471238;23;20004;-80
2022/01/07 16:24:08;;;;;;;10.38;4.38;;;;;;;2.61;98.24;100825.41;6431704;22;20037;-79
2022/01/07 18:27:51;;;;;;;11.30;5.30;;;;;;;1.29;100.00;100816.41;6483464;22;20106;-78
2022/01/07 20:40:31;;;;;;;30.47;17.80;;;;;;;0.70;100.00;100814.84;6382357;22;20017;-78
2022/01/07 20:43:03;;;;;;;32.63;20.05;;;;;;;0.72;100.00;100810.66;6415771;23;20272;-76
2022/01/07 20:45:44;;;;;;;22.57;11.07;;;;;;;0.70;100.00;100794.31;6446089;23;20047;-78
2022/01/07 20:48:16;;;;;;;20.98;10.20;;;;;;;0.72;100.00;100805.50;6420216;23;20009;-80
2022/01/07 20:50:48;;;;;;;18.73;8.45;;;;;;;0.71;100.00;100806.34;6444867;23;20497;-79
2022/01/07 20:53:26;;;;;;;21.15;12.75;;;;;;;0.69;100.00;100802.88;6444676;23;20080;-77
2022/01/07 20:55:58;;;;;;;30.80;19.23;;;;;;;0.77;100.00;100815.88;6476153;23;20012;-78
2022/01/07 20:58:30;;;;;;;34.03;19.27;;;;;;;0.79;100.00;100797.97;6449860;23;20020;-78
2022/01/07 21:01:02;;;;;;;26.13;12.32;;;;;;;0.79;100.00;100797.97;6474239;23;19996;-79
2022/01/07 21:03:35;;;;;;;23.40;13.98;;;;;;;0.78;100.00;100794.53;6451276;23;20013;-85
2022/01/07 21:06:10;;;;;;;18.75;10.63;;;;;;;0.82;100.00;100810.88;6430899;23;20028;-81
2022/01/07 21:08:53;;;;;;;29.63;18.90;;;;;;;0.84;100.00;100806.69;6453632;23;20005;-79
2022/01/07 21:11:26;;;;;;;27.17;16.60;;;;;;;0.80;100.00;100797.16;6464707;23;20028;-84
2022/01/07 21:13:57;;;;;;;17.90;10.13;;;;;;;0.85;100.00;100810.97;6488393;23;20048;-83
2022/01/07 21:16:33;;;;;;;17.03;9.97;;;;;;;0.88;100.00;100823.88;6489333;23;20328;-84
2022/01/07 21:19:45;;;;;;;23.85;12.00;;;;;;;0.91;100.00;100826.53;6458950;23;20005;-83
2022/01/07 21:22:16;;;;;;;24.08;11.25;;;;;;;0.86;100.00;100807.59;6489511;23;20028;-77
2022/01/07 21:24:57;;;;;;;21.17;8.17;;;;;;;0.90;100.00;100817.09;6476516;23;20028;-83
